createdAt,value
2022-11-17T00:01:54.465Z,1.63
2022-11-17T00:04:28.283Z,2.30
2022-11-17T00:06:55.539Z,3.63
2022-11-17T00:09:29.280Z,3.00
2022-11-17T00:12:18.062Z,3.05
2022-11-17T00:14:55.293Z,3.42
2022-11-17T00:17:22.307Z,3.92
2022-11-17T00:20:14.302Z,5.30
2022-11-17T00:22:41.326Z,3.38
2022-11-17T00:25:15.277Z,3.13
2022-11-17T00:27:42.356Z,4.43
2022-11-17T00:30:36.302Z,4.32
2022-11-17T00:33:22.906Z,3.83
2022-11-17T00:36:03.303Z,2.97
2022-11-17T00:38:30.347Z,2.50
2022-11-17T00:41:05.312Z,3.42
2022-11-17T00:43:38.442Z,3.47
2022-11-17T00:46:19.321Z,2.95
2022-11-17T00:48:46.340Z,3.38
2022-11-17T00:51:20.335Z,5.10
2022-11-17T00:53:48.256Z,3.03
2022-11-17T00:56:22.312Z,4.53
2022-11-17T00:58:49.389Z,5.85
2022-11-17T01:01:23.426Z,5.35
2022-11-17T01:03:50.818Z,5.95
2022-11-17T01:06:27.332Z,4.95
2022-11-17T01:08:54.379Z,4.78
2022-11-17T01:11:28.281Z,4.03
2022-11-17T01:14:06.320Z,5.05
2022-11-17T01:16:33.853Z,6.72
2022-11-17T01:19:09.324Z,3.85
2022-11-17T01:21:36.553Z,4.97
2022-11-17T01:24:31.817Z,4.80
2022-11-17T01:26:59.018Z,5.22
2022-11-17T01:29:32.937Z,6.55
2022-11-17T01:32:06.997Z,8.50
2022-11-17T01:34:40.782Z,4.90
2022-11-17T01:37:27.978Z,5.13
2022-11-17T01:40:02.055Z,5.65
2022-11-17T01:42:29.193Z,5.55
2022-11-17T01:45:25.976Z,7.22
2022-11-17T01:48:07.014Z,5.65
2022-11-17T01:50:34.607Z,5.35
2022-11-17T01:53:05.618Z,5.65
2022-11-17T01:55:45.777Z,5.20
2022-11-17T01:58:18.536Z,6.38
2022-11-17T02:00:54.603Z,7.22
2022-11-17T02:03:22.970Z,7.10
2022-11-17T02:06:14.118Z,8.55
2022-11-17T02:08:52.754Z,6.32
2022-11-17T02:11:21.870Z,6.45
2022-11-17T02:13:56.780Z,5.50
2022-11-17T02:16:24.337Z,5.28
2022-11-17T02:18:58.796Z,6.18
2022-11-17T02:21:32.354Z,5.53
2022-11-17T02:24:21.903Z,5.75
2022-11-17T02:27:17.968Z,7.68
2022-11-17T02:30:06.587Z,6.13
2022-11-17T02:32:52.962Z,5.65
2022-11-17T02:35:34.962Z,6.72
2022-11-17T02:38:27.168Z,5.85
2022-11-17T02:41:33.768Z,4.43
2022-11-17T02:44:37.157Z,6.40
2022-11-17T02:47:31.097Z,6.50
2022-11-17T02:50:09.812Z,4.95
2022-11-17T02:52:37.811Z,7.57
2022-11-17T02:55:14.669Z,5.70
2022-11-17T02:57:42.558Z,9.18
2022-11-17T03:00:20.822Z,6.00
2022-11-17T03:03:10.313Z,5.35
2022-11-17T03:05:49.845Z,6.78
2022-11-17T03:08:55.442Z,7.57
2022-11-17T03:11:35.846Z,6.38
2022-11-17T03:14:30.447Z,7.05
2022-11-17T03:17:11.854Z,7.75
2022-11-17T03:19:48.408Z,6.00
2022-11-17T03:22:29.847Z,6.53
2022-11-17T03:25:14.020Z,7.88
2022-11-17T03:27:56.036Z,7.63
2022-11-17T03:30:27.457Z,9.15
2022-11-17T03:33:06.718Z,5.55
2022-11-17T03:35:39.467Z,6.72
2022-11-17T03:38:19.919Z,4.97
2022-11-17T03:40:57.966Z,6.45
2022-11-17T03:43:34.045Z,4.32
2022-11-17T03:46:07.851Z,6.35
2022-11-17T03:48:58.073Z,6.45
2022-11-17T03:51:41.811Z,6.85
2022-11-17T03:54:17.771Z,7.10
2022-11-17T03:56:59.022Z,7.20
2022-11-17T03:59:54.016Z,7.28
2022-11-17T04:02:23.395Z,9.13
2022-11-17T04:05:15.826Z,5.20
2022-11-17T04:07:44.968Z,9.07
2022-11-17T04:10:27.916Z,8.50
2022-11-17T04:13:15.150Z,9.45
2022-11-17T04:16:06.898Z,7.72
2022-11-17T04:18:36.830Z,6.57
2022-11-17T04:21:10.759Z,6.05
2022-11-17T04:23:44.509Z,6.65
2022-11-17T04:26:37.070Z,5.25
2022-11-17T04:29:04.273Z,6.82
2022-11-17T04:31:38.774Z,7.15
2022-11-17T04:34:08.204Z,8.02
2022-11-17T04:36:52.821Z,9.13
2022-11-17T04:39:26.833Z,8.10
2022-11-17T04:42:00.894Z,9.38
2022-11-17T04:44:30.672Z,10.23
2022-11-17T04:47:04.895Z,13.93
2022-11-17T04:49:33.085Z,10.43
2022-11-17T04:52:01.230Z,7.57
2022-11-17T04:54:35.764Z,6.05
2022-11-17T04:57:09.818Z,9.00
2022-11-17T04:59:37.228Z,8.43
2022-11-17T05:02:10.861Z,8.23
2022-11-17T05:04:56.691Z,8.68
2022-11-17T05:07:31.193Z,8.32
2022-11-17T05:09:58.854Z,8.25
2022-11-17T05:12:51.022Z,10.13
2022-11-17T05:15:38.344Z,9.05
2022-11-17T05:18:11.826Z,13.40
2022-11-17T05:20:39.032Z,9.13
2022-11-17T05:23:38.844Z,11.90
2022-11-17T05:26:12.524Z,9.57
2022-11-17T05:28:47.250Z,9.35
2022-11-17T05:31:15.312Z,10.50
2022-11-17T05:33:50.264Z,8.57
2022-11-17T05:36:24.963Z,9.73
2022-11-17T05:39:00.033Z,10.70
2022-11-17T05:44:03.981Z,10.18
2022-11-17T05:46:31.157Z,11.30
2022-11-17T05:49:05.805Z,10.15
2022-11-17T05:51:32.882Z,10.02
2022-11-17T05:54:06.814Z,11.32
2022-11-17T05:56:42.944Z,10.68
2022-11-17T05:59:31.882Z,11.77
2022-11-17T06:02:01.500Z,13.73
2022-11-17T06:04:38.058Z,12.98
2022-11-17T06:07:05.401Z,12.50
2022-11-17T06:09:44.797Z,12.60
2022-11-17T06:12:18.877Z,12.43
2022-11-17T06:14:45.992Z,13.68
2022-11-17T06:17:33.306Z,15.48
2022-11-17T06:20:13.537Z,14.98
2022-11-17T06:22:48.603Z,15.98
2022-11-17T06:25:23.895Z,15.55
2022-11-17T06:30:32.798Z,10.35
2022-11-17T06:33:04.024Z,12.07
2022-11-17T06:35:39.877Z,11.43
2022-11-17T06:38:13.891Z,8.07
2022-11-17T06:40:41.031Z,9.82
2022-11-17T06:43:17.896Z,8.43
2022-11-17T06:45:53.674Z,10.00
2022-11-17T06:48:34.228Z,10.15
2022-11-17T06:51:06.448Z,9.45
2022-11-17T06:53:42.189Z,9.80
2022-11-17T06:56:11.982Z,9.88
2022-11-17T06:58:48.985Z,13.50
2022-11-17T07:01:17.151Z,12.18
2022-11-17T07:03:51.057Z,12.10
2022-11-17T07:06:19.381Z,11.35
2022-11-17T07:08:53.861Z,11.23
2022-11-17T07:11:27.973Z,13.68
2022-11-17T07:13:55.189Z,12.68
2022-11-17T07:16:28.986Z,13.80
2022-11-17T07:18:59.942Z,13.88
2022-11-17T07:21:34.044Z,9.82
2022-11-17T07:24:21.126Z,17.17
2022-11-17T07:26:55.690Z,10.18
2022-11-17T07:29:23.696Z,10.70
2022-11-17T07:31:58.270Z,10.38
2022-11-17T07:34:25.565Z,12.25
2022-11-17T07:36:58.951Z,12.23
2022-11-17T07:39:32.967Z,9.90
2022-11-17T07:42:00.241Z,8.73
2022-11-17T07:44:34.017Z,11.05
2022-11-17T07:47:08.941Z,12.13
2022-11-17T07:49:36.147Z,10.45
2022-11-17T07:52:09.933Z,9.90
2022-11-17T07:54:37.315Z,9.98
2022-11-17T07:57:11.067Z,14.02
2022-11-17T07:59:44.863Z,11.18
2022-11-17T08:02:13.876Z,10.45
2022-11-17T08:04:41.172Z,12.07
2022-11-17T08:07:16.880Z,8.52
2022-11-17T08:09:44.372Z,13.52
2022-11-17T08:12:11.873Z,9.40
2022-11-17T08:14:46.173Z,8.77
2022-11-17T08:17:20.850Z,9.35
2022-11-17T08:19:55.127Z,9.60
2022-11-17T08:22:29.936Z,12.38
2022-11-17T08:25:17.906Z,14.93
2022-11-17T08:27:51.848Z,16.50
2022-11-17T08:30:27.982Z,19.77
2022-11-17T08:33:02.021Z,18.20
2022-11-17T08:35:35.831Z,12.05
2022-11-17T08:38:12.104Z,15.27
2022-11-17T08:40:39.568Z,12.52
2022-11-17T08:43:12.975Z,11.82
2022-11-17T08:45:43.484Z,12.25
2022-11-17T08:48:16.794Z,12.10
2022-11-17T08:50:47.022Z,11.75
2022-11-17T08:53:26.956Z,11.43
2022-11-17T08:55:54.736Z,12.98
2022-11-17T08:58:22.636Z,10.50
2022-11-17T09:01:02.321Z,12.90
2022-11-17T09:03:32.143Z,13.63
2022-11-17T09:06:06.894Z,15.88
2022-11-17T09:08:49.614Z,14.52
2022-11-17T09:11:23.913Z,14.88
2022-11-17T09:13:57.937Z,12.90
2022-11-17T09:16:25.625Z,14.13
2022-11-17T09:19:05.813Z,13.13
2022-11-17T09:21:40.847Z,13.25
2022-11-17T09:27:03.892Z,12.32
2022-11-17T09:29:37.812Z,13.15
2022-11-17T09:32:05.674Z,18.55
2022-11-17T09:34:34.688Z,13.40
2022-11-17T09:37:09.574Z,12.80
2022-11-17T09:39:38.385Z,11.90
2022-11-17T09:42:12.881Z,10.50
2022-11-17T09:44:46.167Z,13.55
2022-11-17T09:47:50.971Z,10.82
2022-11-17T09:50:34.535Z,10.15
2022-11-17T09:53:30.354Z,8.00
2022-11-17T09:58:48.976Z,8.48
2022-11-17T10:01:25.913Z,6.15
2022-11-17T10:03:54.001Z,7.50
2022-11-17T10:06:34.871Z,8.00
2022-11-17T10:09:11.892Z,7.38
2022-11-17T10:11:43.786Z,8.45
2022-11-17T10:14:23.378Z,8.10
2022-11-17T10:17:02.061Z,7.78
2022-11-17T10:19:35.794Z,6.38
2022-11-17T10:22:10.014Z,6.57
2022-11-17T10:25:04.964Z,6.50
2022-11-17T10:27:41.081Z,6.53
2022-11-17T10:30:30.910Z,7.97
2022-11-17T10:33:00.982Z,6.30
2022-11-17T10:35:42.949Z,6.15
2022-11-17T10:38:21.797Z,8.43
2022-11-17T10:40:57.966Z,9.65
2022-11-17T10:43:33.620Z,8.63
2022-11-17T10:46:19.945Z,9.63
2022-11-17T10:49:07.901Z,5.82
2022-11-17T10:51:36.101Z,7.88
2022-11-17T10:54:22.024Z,7.03
2022-11-17T10:57:02.947Z,7.75
2022-11-17T10:59:53.590Z,9.93
2022-11-17T11:02:40.931Z,7.47
2022-11-17T11:05:17.551Z,7.60
2022-11-17T11:07:52.945Z,7.00
2022-11-17T11:10:42.131Z,9.02
2022-11-17T11:13:30.642Z,11.18
2022-11-17T11:16:05.195Z,13.20
2022-11-17T11:18:32.840Z,14.07
2022-11-17T11:21:29.398Z,17.38
2022-11-17T11:24:22.064Z,10.80
2022-11-17T11:27:06.489Z,15.13
2022-11-17T11:30:12.007Z,13.15
2022-11-17T11:32:58.931Z,9.55
2022-11-17T11:35:51.052Z,10.63
2022-11-17T11:38:36.912Z,11.02
2022-11-17T11:41:46.022Z,11.77
2022-11-17T11:44:28.244Z,13.90
2022-11-17T11:47:35.310Z,12.02
2022-11-17T11:50:14.655Z,10.70
2022-11-17T11:52:54.992Z,14.48
2022-11-17T11:55:34.616Z,11.80
2022-11-17T11:58:22.083Z,11.05
2022-11-17T12:01:06.013Z,8.70
2022-11-17T12:03:48.732Z,10.82
2022-11-17T12:06:54.191Z,9.70
2022-11-17T12:09:59.448Z,10.20
2022-11-17T12:12:39.974Z,9.93
2022-11-17T12:15:11.367Z,11.00
2022-11-17T12:18:20.853Z,10.00
2022-11-17T12:21:13.591Z,9.57
2022-11-17T12:24:16.055Z,8.23
2022-11-17T12:26:50.405Z,10.68
2022-11-17T12:29:27.118Z,7.70
2022-11-17T12:32:02.658Z,8.63
2022-11-17T12:34:40.951Z,8.60
2022-11-17T12:37:22.946Z,9.32
2022-11-17T12:40:05.265Z,9.40
2022-11-17T12:42:34.285Z,8.40
2022-11-17T12:45:11.431Z,8.98
2022-11-17T12:48:04.961Z,8.32
2022-11-17T12:50:58.221Z,7.90
2022-11-17T12:53:57.199Z,6.28
2022-11-17T12:56:54.144Z,8.48
2022-11-17T12:59:46.200Z,7.93
2022-11-17T13:02:45.043Z,8.50
2022-11-17T13:05:21.209Z,6.75
2022-11-17T13:07:56.334Z,5.90
2022-11-17T13:13:23.896Z,6.50
2022-11-17T13:16:00.325Z,5.88
2022-11-17T13:18:46.982Z,7.90
2022-11-17T13:21:17.875Z,4.93
2022-11-17T13:23:59.957Z,4.93
2022-11-17T13:26:38.560Z,3.97
2022-11-17T13:29:15.357Z,5.60
2022-11-17T13:31:49.366Z,4.18
2022-11-17T13:34:21.482Z,4.30
2022-11-17T13:37:09.105Z,5.93
2022-11-17T13:39:36.357Z,4.28
2022-11-17T13:42:11.048Z,4.90
2022-11-17T13:44:38.667Z,4.63
2022-11-17T13:47:34.026Z,5.32
2022-11-17T13:50:38.997Z,4.25
2022-11-17T13:53:23.545Z,5.10
2022-11-17T13:55:58.017Z,4.83
2022-11-17T13:58:51.250Z,6.50
2022-11-17T14:01:35.013Z,4.85
2022-11-17T14:04:21.913Z,3.63
2022-11-17T14:07:02.139Z,3.20
2022-11-17T14:09:32.444Z,4.15
2022-11-17T14:12:06.168Z,4.28
2022-11-17T14:14:45.279Z,5.80
2022-11-17T14:17:28.066Z,3.53
2022-11-17T14:19:55.414Z,4.88
2022-11-17T14:22:32.167Z,4.22
2022-11-17T14:25:23.019Z,3.67
2022-11-17T14:27:57.090Z,5.75
2022-11-17T14:30:24.303Z,5.00
2022-11-17T14:33:04.400Z,5.93
2022-11-17T14:35:42.141Z,7.60
2022-11-17T14:38:20.278Z,6.77
2022-11-17T14:40:58.347Z,6.00
2022-11-17T14:43:25.769Z,4.85
2022-11-17T14:45:52.915Z,4.50
2022-11-17T14:48:27.076Z,3.97
2022-11-17T14:51:00.551Z,5.27
2022-11-17T14:53:41.932Z,6.20
2022-11-17T14:56:11.432Z,4.53
2022-11-17T14:58:45.022Z,4.13
2022-11-17T15:01:18.582Z,4.57
2022-11-17T15:03:53.161Z,7.30
2022-11-17T15:06:20.665Z,10.02
2022-11-17T15:09:00.041Z,8.48
2022-11-17T15:11:30.078Z,10.02
2022-11-17T15:14:13.348Z,9.02
2022-11-17T15:16:48.681Z,7.82
2022-11-17T15:19:16.162Z,8.02
2022-11-17T15:21:50.086Z,6.82
2022-11-17T15:24:38.512Z,4.63
2022-11-17T15:27:13.506Z,7.10
2022-11-17T15:29:40.766Z,7.40
2022-11-17T15:32:14.959Z,7.00
2022-11-17T15:34:42.248Z,5.23
2022-11-17T15:37:16.012Z,6.65
2022-11-17T15:39:43.462Z,6.93
2022-11-17T15:42:16.987Z,6.70
2022-11-17T15:44:44.848Z,4.97
2022-11-17T15:47:19.296Z,7.20
2022-11-17T15:49:47.188Z,7.00
2022-11-17T15:52:41.450Z,5.15
2022-11-17T15:55:08.697Z,5.65
2022-11-17T15:57:41.927Z,5.30
2022-11-17T16:00:10.154Z,4.50
2022-11-17T16:02:44.038Z,7.07
2022-11-17T16:05:11.650Z,6.55
2022-11-17T16:07:46.965Z,6.32
2022-11-17T16:10:14.622Z,5.65
2022-11-17T16:12:49.102Z,6.72
2022-11-17T16:15:24.522Z,5.88
2022-11-17T16:17:52.247Z,5.85
2022-11-17T16:20:26.625Z,4.32
2022-11-17T16:23:01.001Z,4.43
2022-11-17T16:25:54.091Z,4.50
2022-11-17T16:28:28.074Z,5.28
2022-11-17T16:31:01.952Z,6.22
2022-11-17T16:33:36.466Z,4.65
2022-11-17T16:36:07.491Z,8.52
2022-11-17T16:38:49.879Z,5.47
2022-11-17T16:41:29.641Z,6.30
2022-11-17T16:44:04.071Z,5.13
2022-11-17T16:46:38.983Z,5.22
2022-11-17T16:49:08.242Z,6.43
2022-11-17T16:51:42.094Z,5.32
2022-11-17T16:54:12.861Z,4.45
2022-11-17T16:56:47.001Z,7.88
2022-11-17T16:59:15.074Z,4.70
2022-11-17T17:01:42.661Z,4.35
2022-11-17T17:04:19.032Z,5.18
2022-11-17T17:06:46.673Z,5.55
2022-11-17T17:09:27.667Z,4.60
2022-11-17T17:12:02.102Z,7.80
2022-11-17T17:14:29.373Z,5.38
2022-11-17T17:17:03.078Z,5.97
2022-11-17T17:19:30.624Z,5.00
2022-11-17T17:22:04.976Z,4.78
2022-11-17T17:24:41.776Z,5.90
2022-11-17T17:27:22.272Z,6.47
2022-11-17T17:29:56.170Z,5.53
2022-11-17T17:32:23.563Z,6.85
2022-11-17T17:34:57.241Z,8.55
2022-11-17T17:37:24.772Z,4.55
2022-11-17T17:39:59.283Z,7.03
2022-11-17T17:42:29.972Z,7.05
2022-11-17T17:45:04.028Z,5.55
2022-11-17T17:47:31.492Z,7.57
2022-11-17T17:50:05.541Z,5.90
2022-11-17T17:52:32.914Z,5.65
2022-11-17T17:55:08.554Z,5.47
2022-11-17T17:57:42.155Z,5.63
2022-11-17T18:00:17.082Z,5.68
2022-11-17T18:02:44.435Z,6.88
2022-11-17T18:05:11.607Z,8.43
2022-11-17T18:07:45.150Z,5.10
2022-11-17T18:10:19.282Z,6.30
2022-11-17T18:12:53.312Z,5.25
2022-11-17T18:15:27.068Z,6.80
2022-11-17T18:18:00.992Z,7.53
2022-11-17T18:20:35.267Z,7.40
2022-11-17T18:23:09.051Z,6.33
2022-11-17T18:25:43.466Z,5.47
2022-11-17T18:28:24.053Z,6.60
2022-11-17T18:30:51.639Z,6.65
2022-11-17T18:33:26.086Z,6.85
2022-11-17T18:36:01.348Z,5.47
2022-11-17T18:38:35.966Z,7.18
2022-11-17T18:41:21.838Z,5.97
2022-11-17T18:43:49.983Z,6.25
2022-11-17T18:46:19.884Z,7.03
2022-11-17T18:48:54.974Z,9.18
2022-11-17T18:54:00.055Z,7.75
2022-11-17T18:56:38.267Z,11.15
2022-11-17T18:59:12.053Z,10.45
2022-11-17T19:01:50.140Z,9.03
2022-11-17T19:04:18.560Z,8.90
2022-11-17T19:06:52.166Z,7.95
2022-11-17T19:09:21.125Z,8.75
2022-11-17T19:11:48.441Z,6.85
2022-11-17T19:14:22.132Z,5.63
2022-11-17T19:16:51.382Z,5.38
2022-11-17T19:19:26.366Z,7.07
2022-11-17T19:21:53.786Z,6.22
2022-11-17T19:24:28.232Z,7.53
2022-11-17T19:27:10.163Z,7.45
2022-11-17T19:29:46.123Z,6.53
2022-11-17T19:32:13.703Z,8.25
2022-11-17T19:34:49.272Z,6.75
2022-11-17T19:37:16.867Z,6.20
2022-11-17T19:39:44.282Z,8.48
2022-11-17T19:42:19.284Z,7.15
2022-11-17T19:44:53.128Z,7.45
2022-11-17T19:47:21.076Z,6.72
2022-11-17T19:49:55.090Z,9.43
2022-11-17T19:52:22.579Z,6.00
2022-11-17T19:54:56.094Z,4.70
2022-11-17T19:57:23.919Z,6.50
2022-11-17T19:59:57.983Z,6.90
2022-11-17T20:02:26.404Z,6.13
2022-11-17T20:05:00.329Z,7.50
2022-11-17T20:07:27.804Z,7.13
2022-11-17T20:10:02.061Z,6.25
2022-11-17T20:12:29.426Z,6.30
2022-11-17T20:15:03.102Z,5.70
2022-11-17T20:17:30.597Z,6.90
2022-11-17T20:20:04.164Z,7.13
2022-11-17T20:22:32.722Z,6.65
2022-11-17T20:25:07.267Z,8.55
2022-11-17T20:27:41.224Z,6.63
2022-11-17T20:30:15.946Z,7.00
2022-11-17T20:32:43.806Z,7.30
2022-11-17T20:35:19.416Z,6.05
2022-11-17T20:37:49.848Z,7.60
2022-11-17T20:40:25.427Z,6.43
2022-11-17T20:43:00.157Z,7.35
2022-11-17T20:45:34.047Z,9.27
2022-11-17T20:48:01.295Z,7.50
2022-11-17T20:50:35.099Z,7.50
2022-11-17T20:53:09.070Z,7.80
2022-11-17T20:55:37.109Z,8.85
2022-11-17T20:58:11.023Z,9.50
2022-11-17T21:00:46.857Z,6.38
2022-11-17T21:03:14.674Z,10.77
2022-11-17T21:05:50.079Z,13.30
2022-11-17T21:08:19.637Z,8.63
2022-11-17T21:10:53.091Z,6.65
2022-11-17T21:13:20.561Z,8.65
2022-11-17T21:15:54.036Z,10.73
2022-11-17T21:18:30.906Z,10.88
2022-11-17T21:21:01.867Z,8.38
2022-11-17T21:23:37.030Z,10.93
2022-11-17T21:26:16.057Z,11.27
2022-11-17T21:28:50.074Z,10.40
2022-11-17T21:31:27.019Z,11.82
2022-11-17T21:33:59.757Z,12.25
2022-11-17T21:36:35.129Z,12.20
2022-11-17T21:39:02.732Z,13.23
2022-11-17T21:41:39.013Z,12.25
2022-11-17T21:44:06.293Z,12.32
2022-11-17T21:46:41.189Z,12.23
2022-11-17T21:49:15.599Z,10.77
2022-11-17T21:51:43.513Z,9.95
2022-11-17T21:54:16.961Z,12.13
2022-11-17T21:56:50.922Z,11.10
2022-11-17T21:59:18.560Z,10.73
2022-11-17T22:01:53.286Z,9.98
2022-11-17T22:04:20.606Z,10.98
2022-11-17T22:06:54.184Z,10.80
2022-11-17T22:09:28.417Z,11.63
2022-11-17T22:12:02.963Z,13.33
2022-11-17T22:14:30.780Z,13.07
2022-11-17T22:17:04.967Z,13.00
2022-11-17T22:19:42.186Z,10.23
2022-11-17T22:22:09.651Z,11.30
2022-11-17T22:24:48.373Z,10.07
2022-11-17T22:27:26.706Z,10.43
2022-11-17T22:30:00.977Z,10.15
2022-11-17T22:32:28.491Z,11.97
2022-11-17T22:35:03.244Z,9.95
2022-11-17T22:37:37.321Z,9.23
2022-11-17T22:40:11.054Z,8.35
2022-11-17T22:42:38.267Z,9.13
2022-11-17T22:45:11.915Z,8.77
2022-11-17T22:47:42.694Z,9.40
2022-11-17T22:50:17.015Z,8.35
2022-11-17T22:52:44.837Z,9.13
2022-11-17T22:55:19.161Z,10.13
2022-11-17T22:57:46.406Z,11.25
2022-11-17T23:00:21.133Z,9.85
2022-11-17T23:02:48.317Z,10.32
2022-11-17T23:05:23.010Z,9.32
2022-11-17T23:07:50.365Z,10.30
2022-11-17T23:10:25.196Z,7.80
2022-11-17T23:12:59.053Z,9.00
2022-11-17T23:15:33.052Z,8.85
2022-11-17T23:18:07.127Z,8.25
2022-11-17T23:20:36.702Z,7.80
2022-11-17T23:23:10.048Z,9.15
2022-11-17T23:25:44.252Z,8.48
2022-11-17T23:28:29.147Z,9.13
2022-11-17T23:31:04.252Z,8.07
2022-11-17T23:33:47.187Z,11.80
2022-11-17T23:36:28.183Z,9.85
2022-11-17T23:38:58.716Z,9.23
2022-11-17T23:41:33.273Z,7.90
2022-11-17T23:44:01.773Z,7.10
2022-11-17T23:46:36.004Z,9.48
2022-11-17T23:49:10.003Z,7.60
2022-11-17T23:51:37.323Z,5.85
2022-11-17T23:54:12.233Z,7.28
2022-11-17T23:56:48.215Z,6.78
2022-11-17T23:59:23.037Z,7.22
